Time;durP1;ratioP1;P1;durP2;ratioP2;P2;SDS_P1;SDS_P2;PMS_P1;PMS_P2;Temp;Humidity;BMP_temperature;BMP_pressure;BME280_temperature;BME280_humidity;BME280_pressure;Samples;Min_cycle;Max_cycle;Signal;HPM_P1;HPM_P2
2024/01/20 00:01:58;;;;;;;12.07;4.27;;;;;;;-0.13;100.00;100575.18;124549;1099;104140;-83
2024/01/20 00:04:29;;;;;;;14.10;5.30;;;;;;;-0.13;100.00;100576.07;124888;1099;104382;-84
2024/01/20 00:07:00;;;;;;;10.17;4.70;;;;;;;-0.12;100.00;100584.73;124872;1099;104179;-83
2024/01/20 00:09:31;;;;;;;15.00;5.40;;;;;;;-0.13;100.00;100583.81;124886;1099;104251;-84
2024/01/20 00:12:03;;;;;;;16.60;5.90;;;;;;;-0.13;100.00;100577.76;124624;1099;104306;-84
2024/01/20 00:14:34;;;;;;;15.47;5.60;;;;;;;-0.15;100.00;100572.48;124917;1099;104299;-84
2024/01/20 00:17:06;;;;;;;14.77;5.97;;;;;;;-0.14;100.00;100563.05;124386;1099;101935;-83
2024/01/20 00:19:37;;;;;;;14.33;5.70;;;;;;;-0.13;100.00;100577.76;124761;1099;104248;-83
2024/01/20 00:22:09;;;;;;;16.63;5.70;;;;;;;-0.16;100.00;100575.83;124860;1099;104245;-83
2024/01/20 00:24:40;;;;;;;17.50;6.35;;;;;;;-0.15;100.00;100585.38;125225;1099;104258;-84
2024/01/20 00:27:11;;;;;;;16.07;6.70;;;;;;;-0.18;100.00;100592.87;124526;1099;104162;-83
2024/01/20 00:29:42;;;;;;;15.83;5.63;;;;;;;-0.16;100.00;100588.72;124496;1099;104176;-84
2024/01/20 00:32:14;;;;;;;18.00;6.60;;;;;;;-0.18;100.00;100595.45;124687;1099;104172;-84
2024/01/20 00:34:45;;;;;;;17.67;6.27;;;;;;;-0.20;100.00;100600.48;124726;1099;104255;-84
2024/01/20 00:37:16;;;;;;;16.43;6.20;;;;;;;-0.21;100.00;100606.41;124488;1099;104323;-83
2024/01/20 00:39:47;;;;;;;17.23;6.20;;;;;;;-0.23;100.00;100609.66;124677;1099;104358;-82
2024/01/20 00:42:19;;;;;;;16.77;6.03;;;;;;;-0.23;100.00;100615.71;124812;1099;104318;-84
2024/01/20 00:44:51;;;;;;;14.63;5.57;;;;;;;-0.24;100.00;100616.48;124855;1099;104294;-83
2024/01/20 00:47:23;;;;;;;12.37;5.67;;;;;;;-0.26;100.00;100601.68;124322;1100;104232;-83
2024/01/20 00:49:54;;;;;;;17.07;6.47;;;;;;;-0.27;100.00;100593.02;124005;1099;104248;-82
2024/01/20 00:52:26;;;;;;;15.03;6.03;;;;;;;-0.28;100.00;100587.73;123892;1099;104175;-83
2024/01/20 00:54:57;;;;;;;14.47;5.83;;;;;;;-0.28;100.00;100592.90;123987;1099;102020;-81
2024/01/20 00:57:28;;;;;;;16.87;5.97;;;;;;;-0.28;100.00;100609.30;123753;1099;104354;-81
2024/01/20 00:59:59;;;;;;;19.53;7.40;;;;;;;-0.26;100.00;100614.58;123894;1099;104277;-82
2024/01/20 01:02:30;;;;;;;20.17;8.10;;;;;;;-0.25;100.00;100608.62;124017;1099;104270;-84
2024/01/20 01:05:02;;;;;;;19.07;7.80;;;;;;;-0.27;100.00;100594.70;124285;1099;104248;-82
2024/01/20 01:07:33;;;;;;;18.33;7.67;;;;;;;-0.31;100.00;100587.49;124127;1099;104479;-83
2024/01/20 01:10:06;;;;;;;20.27;7.83;;;;;;;-0.34;100.00;100580.44;123930;1099;104281;-83
2024/01/20 01:12:37;;;;;;;20.60;7.97;;;;;;;-0.38;100.00;100594.73;124064;1099;104277;-81
2024/01/20 01:15:10;;;;;;;20.13;8.23;;;;;;;-0.42;100.00;100610.75;124106;1099;104759;-82
2024/01/20 01:17:41;;;;;;;21.97;8.73;;;;;;;-0.46;100.00;100612.95;123855;1102;104364;-81
2024/01/20 01:20:13;;;;;;;19.97;8.17;;;;;;;-0.48;100.00;100617.99;124021;1099;104348;-83
2024/01/20 01:22:44;;;;;;;24.10;9.27;;;;;;;-0.51;100.00;100599.70;123933;1099;104238;-81
2024/01/20 01:25:16;;;;;;;23.23;9.57;;;;;;;-0.55;100.00;100624.33;123968;1099;104329;-82
2024/01/20 01:27:47;;;;;;;26.53;10.17;;;;;;;-0.57;100.00;100638.75;123938;1099;104350;-82
2024/01/20 01:30:19;;;;;;;25.10;10.60;;;;;;;-0.59;100.00;100635.16;124509;1099;104699;-81
2024/01/20 01:32:50;;;;;;;26.70;10.87;;;;;;;-0.59;100.00;100653.20;124230;1099;104247;-81
2024/01/20 01:35:21;;;;;;;25.50;10.60;;;;;;;-0.60;100.00;100655.65;123590;1099;104357;-82
2024/01/20 01:37:53;;;;;;;27.93;11.63;;;;;;;-0.63;100.00;100660.55;124051;1099;104188;-81
2024/01/20 01:40:24;;;;;;;26.57;10.43;;;;;;;-0.62;100.00;100675.25;124127;1099;104367;-82
2024/01/20 01:42:57;;;;;;;26.45;10.70;;;;;;;-0.65;100.00;100663.00;123940;1099;104283;-81
2024/01/20 01:45:28;;;;;;;25.07;11.17;;;;;;;-0.63;100.00;100665.70;123952;1099;104415;-81
2024/01/20 01:48:00;;;;;;;27.57;11.27;;;;;;;-0.63;100.00;100664.02;123919;1099;104264;-81
2024/01/20 01:50:31;;;;;;;27.97;11.63;;;;;;;-0.63;100.00;100663.13;124810;1099;104245;-80
2024/01/20 01:53:03;;;;;;;28.53;10.37;;;;;;;-0.63;100.00;100666.59;124251;1099;104249;-81
2024/01/20 01:55:35;;;;;;;29.40;11.90;;;;;;;-0.65;100.00;100677.58;124245;1099;104277;-80
2024/01/20 01:58:07;;;;;;;28.43;12.53;;;;;;;-0.66;100.00;100679.23;123972;1099;104415;-81
2024/01/20 02:00:38;;;;;;;28.33;12.00;;;;;;;-0.66;100.00;100686.95;124068;1099;104274;-80
2024/01/20 02:03:10;;;;;;;27.53;11.87;;;;;;;-0.65;100.00;100690.46;124078;1099;104274;-80
2024/01/20 02:05:43;;;;;;;28.02;12.50;;;;;;;-0.65;100.00;100704.23;124203;1099;104277;-81
2024/01/20 02:08:14;;;;;;;30.57;12.93;;;;;;;-0.66;100.00;100698.95;124117;1099;104267;-81
2024/01/20 02:10:47;;;;;;;30.60;14.03;;;;;;;-0.66;100.00;100706.69;123740;1099;104862;-80
2024/01/20 02:13:19;;;;;;;32.73;13.00;;;;;;;-0.65;100.00;100713.66;123579;1099;104316;-80
2024/01/20 02:15:51;;;;;;;28.37;13.20;;;;;;;-0.65;100.00;100714.55;123883;1098;104470;-80
2024/01/20 02:18:25;;;;;;;31.50;13.60;;;;;;;-0.65;100.00;100713.66;123782;1099;104246;-83
2024/01/20 02:20:56;;;;;;;32.05;13.32;;;;;;;-0.65;100.00;100721.39;124133;1098;104246;-80
2024/01/20 02:23:27;;;;;;;30.90;13.13;;;;;;;-0.67;100.00;100722.91;123982;1102;104650;-80
2024/01/20 02:25:58;;;;;;;33.07;14.03;;;;;;;-0.68;100.00;100715.98;123998;1099;104275;-80
2024/01/20 02:28:30;;;;;;;33.65;15.15;;;;;;;-0.67;100.00;100720.34;123462;1099;104262;-79
2024/01/20 02:31:01;;;;;;;33.67;14.77;;;;;;;-0.67;100.00;100715.18;124100;1099;104351;-80
2024/01/20 02:33:32;;;;;;;32.30;14.93;;;;;;;-0.70;100.00;100723.58;123632;1099;104261;-80
2024/01/20 02:36:03;;;;;;;34.83;15.73;;;;;;;-0.71;100.00;100726.03;123904;1099;104351;-80
2024/01/20 02:38:34;;;;;;;36.00;15.80;;;;;;;-0.73;100.00;100726.79;124058;1099;104248;-81
2024/01/20 02:41:06;;;;;;;34.20;15.10;;;;;;;-0.75;100.00;100719.69;124581;1099;104268;-81
2024/01/20 02:43:37;;;;;;;33.20;13.97;;;;;;;-0.75;100.00;100728.34;124432;1099;104278;-81
2024/01/20 02:46:08;;;;;;;34.27;14.33;;;;;;;-0.77;100.00;100729.88;123999;1099;104172;-80
2024/01/20 02:48:39;;;;;;;36.43;15.33;;;;;;;-0.79;100.00;100725.38;123872;1099;104370;-81
2024/01/20 02:51:12;;;;;;;34.73;15.47;;;;;;;-0.82;100.00;100728.59;124013;1099;104195;-80
2024/01/20 02:53:44;;;;;;;42.03;16.75;;;;;;;-0.86;100.00;100723.05;124252;1099;104737;-79
2024/01/20 02:56:15;;;;;;;34.83;15.83;;;;;;;-0.84;100.00;100726.64;124037;1099;104268;-80
2024/01/20 02:58:47;;;;;;;36.13;15.57;;;;;;;-0.79;100.00;100736.58;123959;1099;104351;-79
2024/01/20 03:01:18;;;;;;;40.17;17.53;;;;;;;-0.75;100.00;100738.66;124063;1099;104255;-80
2024/01/20 03:03:49;;;;;;;41.40;16.37;;;;;;;-0.73;100.00;100741.36;123957;1099;104252;-80
2024/01/20 03:06:23;;;;;;;36.65;16.32;;;;;;;-0.74;100.00;100739.55;123840;1099;104337;-80
2024/01/20 03:08:54;;;;;;;39.43;17.60;;;;;;;-0.74;100.00;100739.55;123951;1099;104249;-80
2024/01/20 03:11:26;;;;;;;38.30;16.43;;;;;;;-0.76;100.00;100736.84;123600;1099;104408;-80
2024/01/20 03:13:57;;;;;;;44.30;18.30;;;;;;;-0.79;100.00;100740.84;123412;1099;104367;-80
2024/01/20 03:16:28;;;;;;;39.97;18.13;;;;;;;-0.82;100.00;100738.89;123886;1099;104659;-81
2024/01/20 03:19:01;;;;;;;42.30;19.33;;;;;;;-0.84;100.00;100732.72;123649;1099;104447;-79
2024/01/20 03:21:33;;;;;;;42.97;17.13;;;;;;;-0.84;100.00;100735.30;123608;1099;104271;-80
2024/01/20 03:24:04;;;;;;;42.05;18.75;;;;;;;-0.87;100.00;100740.19;123240;1099;104376;-80
2024/01/20 03:26:35;;;;;;;43.50;18.63;;;;;;;-0.86;100.00;100759.12;123581;1098;104355;-79
2024/01/20 03:29:06;;;;;;;46.83;18.87;;;;;;;-0.89;100.00;100764.90;123537;1099;104361;-79
2024/01/20 03:31:38;;;;;;;45.37;19.50;;;;;;;-0.91;100.00;100776.76;123506;1099;104376;-79
2024/01/20 03:34:10;;;;;;;41.53;19.07;;;;;;;-0.90;100.00;100796.61;123476;1098;104274;-79
2024/01/20 03:36:41;;;;;;;37.87;17.00;;;;;;;-0.91;100.00;100782.80;123563;1099;104270;-78
2024/01/20 03:39:12;;;;;;;42.00;18.10;;;;;;;-0.93;100.00;100788.62;123610;1099;104357;-80
2024/01/20 03:41:43;;;;;;;43.40;18.17;;;;;;;-0.93;100.00;100789.51;123445;1099;104329;-80
2024/01/20 03:44:15;;;;;;;42.77;17.13;;;;;;;-0.96;100.00;100775.47;123731;1099;104277;-79
2024/01/20 03:46:46;;;;;;;47.37;19.17;;;;;;;-0.97;100.00;100777.13;123219;1099;104360;-78
2024/01/20 03:49:17;;;;;;;42.20;18.27;;;;;;;-0.96;100.00;100793.50;123299;1099;104408;-78
2024/01/20 03:51:48;;;;;;;43.57;19.03;;;;;;;-0.99;100.00;100807.01;123539;1099;104171;-78
2024/01/20 03:54:19;;;;;;;40.30;18.07;;;;;;;-1.02;100.00;100819.63;123538;1099;104283;-80
2024/01/20 03:56:50;;;;;;;43.60;19.93;;;;;;;-1.03;100.00;100806.61;123353;1099;104300;-79
2024/01/20 03:59:21;;;;;;;39.80;18.30;;;;;;;-1.02;100.00;100808.43;123490;1099;104300;-79
2024/01/20 04:01:53;;;;;;;45.10;19.03;;;;;;;-1.05;100.00;100831.34;123471;1098;104278;-79
2024/01/20 04:04:24;;;;;;;45.80;18.70;;;;;;;-1.06;100.00;100833.03;123450;1099;104345;-79
2024/01/20 04:06:56;;;;;;;43.87;19.63;;;;;;;-1.06;100.00;100840.76;123452;1098;104245;-78
2024/01/20 04:09:27;;;;;;;43.53;19.67;;;;;;;-1.10;100.00;100836.98;123221;1099;104341;-78
2024/01/20 04:11:59;;;;;;;45.37;19.63;;;;;;;-1.09;100.00;100836.23;123447;1099;105582;-78
2024/01/20 04:14:30;;;;;;;46.20;19.47;;;;;;;-1.11;100.00;100845.50;123575;1099;104341;-78
2024/01/20 04:17:01;;;;;;;47.45;20.25;;;;;;;-1.12;100.00;100855.67;123575;1098;104300;-78
2024/01/20 04:19:32;;;;;;;45.40;20.43;;;;;;;-1.12;100.00;100864.29;123401;1099;104328;-78
2024/01/20 04:22:03;;;;;;;45.07;20.20;;;;;;;-1.14;100.00;100873.56;123490;1099;104255;-77
2024/01/20 04:24:35;;;;;;;47.33;20.43;;;;;;;-1.15;100.00;100874.32;123559;1098;104383;-78
2024/01/20 04:27:06;;;;;;;44.63;19.10;;;;;;;-1.16;100.00;100881.91;123446;1099;104290;-80
2024/01/20 04:29:37;;;;;;;50.45;20.40;;;;;;;-1.19;100.00;100882.53;123332;1098;104492;-78
2024/01/20 04:32:09;;;;;;;43.77;19.77;;;;;;;-1.20;100.00;100919.38;123394;1099;104249;-78
2024/01/20 04:34:40;;;;;;;47.70;21.33;;;;;;;-1.21;100.00;100926.96;123512;1098;104309;-79
2024/01/20 04:37:11;;;;;;;45.93;20.33;;;;;;;-1.23;100.00;100950.00;123158;1099;104357;-79
2024/01/20 04:39:42;;;;;;;46.15;20.70;;;;;;;-1.25;100.00;100950.62;123503;1099;104672;-78
2024/01/20 04:42:14;;;;;;;47.53;19.77;;;;;;;-1.27;100.00;100971.08;123048;1099;104357;-77
2024/01/20 04:44:46;;;;;;;50.20;20.57;;;;;;;-1.29;100.00;100990.65;123434;1098;104315;-77
2024/01/20 04:47:18;;;;;;;50.70;21.20;;;;;;;-1.30;100.00;100991.41;123141;1099;104349;-77
2024/01/20 04:49:51;;;;;;;46.40;20.37;;;;;;;-1.32;100.00;100998.98;123175;1099;104270;-79
2024/01/20 04:52:23;;;;;;;42.77;18.87;;;;;;;-1.33;100.00;101014.30;123357;1099;104341;-79
2024/01/20 04:54:54;;;;;;;46.67;20.80;;;;;;;-1.33;100.00;101011.72;123231;1099;104300;-77
2024/01/20 04:57:25;;;;;;;47.05;20.40;;;;;;;-1.34;100.00;101021.13;123475;1099;104325;-77
2024/01/20 04:59:56;;;;;;;50.23;19.80;;;;;;;-1.32;100.00;101018.69;123605;1099;104268;-77
2024/01/20 05:02:27;;;;;;;48.57;19.80;;;;;;;-1.30;100.00;101006.85;123251;1099;104326;-77
2024/01/20 05:04:58;;;;;;;48.10;21.13;;;;;;;-1.31;100.00;101007.61;123606;1099;104716;-77
2024/01/20 05:07:30;;;;;;;51.23;20.97;;;;;;;-1.29;100.00;101018.97;123243;1099;104342;-76
2024/01/20 05:10:01;;;;;;;48.33;18.93;;;;;;;-1.28;100.00;101008.81;123840;1098;104270;-77
2024/01/20 05:12:32;;;;;;;50.80;20.47;;;;;;;-1.25;100.00;101002.12;123495;1099;104267;-78
2024/01/20 05:15:07;;;;;;;42.73;19.40;;;;;;;-1.25;100.00;101002.12;123592;1099;104299;-78
2024/01/20 05:17:38;;;;;;;49.03;20.60;;;;;;;-1.24;100.00;101009.09;123557;1099;104271;-77
2024/01/20 05:20:13;;;;;;;48.30;20.00;;;;;;;-1.23;100.00;101003.16;123646;1099;104393;-78
2024/01/20 05:22:44;;;;;;;49.13;21.60;;;;;;;-1.22;100.00;101008.44;123370;1099;104328;-77
2024/01/20 05:25:15;;;;;;;50.17;20.97;;;;;;;-1.23;100.00;101006.66;123732;1099;104339;-78
2024/01/20 05:27:46;;;;;;;47.60;20.50;;;;;;;-1.22;100.00;101005.87;123654;1099;104361;-77
2024/01/20 05:30:18;;;;;;;44.23;20.00;;;;;;;-1.23;100.00;101001.50;123847;1099;104742;-79
2024/01/20 05:32:49;;;;;;;46.40;21.17;;;;;;;-1.20;100.00;101004.36;123601;1099;104365;-77
2024/01/20 05:35:20;;;;;;;50.03;21.93;;;;;;;-1.21;100.00;100994.81;123120;1099;104319;-77
2024/01/20 05:37:51;;;;;;;47.30;20.97;;;;;;;-1.22;100.00;101000.72;123356;1102;104354;-77
2024/01/20 05:40:23;;;;;;;50.33;21.30;;;;;;;-1.19;100.00;101010.41;123583;1099;104258;-77
2024/01/20 05:42:54;;;;;;;46.10;20.43;;;;;;;-1.20;100.00;101019.81;123523;1099;104261;-77
2024/01/20 05:45:25;;;;;;;50.37;20.43;;;;;;;-1.19;100.00;101031.00;123869;1099;104425;-77
2024/01/20 05:47:56;;;;;;;52.37;22.03;;;;;;;-1.17;100.00;101029.46;123667;1099;104310;-77
2024/01/20 05:50:28;;;;;;;48.47;21.40;;;;;;;-1.17;100.00;101030.39;123656;1099;104277;-77
2024/01/20 05:52:59;;;;;;;46.17;20.40;;;;;;;-1.19;100.00;101034.47;123677;1099;104283;-77
2024/01/20 05:55:30;;;;;;;49.10;20.03;;;;;;;-1.21;99.80;101036.02;123539;1099;104622;-77
2024/01/20 05:58:02;;;;;;;49.13;21.70;;;;;;;-1.21;99.78;101041.16;123785;1099;104402;-78
2024/01/20 06:00:33;;;;;;;50.23;21.80;;;;;;;-1.21;100.00;101048.89;123775;1099;104754;-77
2024/01/20 06:03:05;;;;;;;49.97;21.60;;;;;;;-1.22;100.00;101056.48;123538;1099;104374;-77
2024/01/20 06:05:36;;;;;;;43.73;20.20;;;;;;;-1.25;100.00;101051.05;123598;1099;104283;-77
2024/01/20 06:08:08;;;;;;;47.40;20.57;;;;;;;-1.27;99.54;101074.97;123582;1099;104242;-77
2024/01/20 06:10:39;;;;;;;49.23;20.33;;;;;;;-1.24;100.00;101078.62;123306;1098;104354;-77
2024/01/20 06:13:11;;;;;;;51.27;22.40;;;;;;;-1.23;100.00;101090.70;123739;1098;104357;-77
2024/01/20 06:15:42;;;;;;;51.45;21.95;;;;;;;-1.23;100.00;101096.78;123622;1099;104252;-77
2024/01/20 06:18:13;;;;;;;50.03;21.90;;;;;;;-1.24;99.69;101112.09;123617;1099;104277;-76
2024/01/20 06:20:44;;;;;;;46.33;19.10;;;;;;;-1.25;100.00;101111.17;123640;1099;104277;-76
2024/01/20 06:23:15;;;;;;;43.87;19.90;;;;;;;-1.25;100.00;101108.59;123575;1099;102468;-76
2024/01/20 06:25:47;;;;;;;46.80;20.43;;;;;;;-1.26;100.00;101119.67;123618;1099;104277;-77
2024/01/20 06:28:18;;;;;;;43.70;19.67;;;;;;;-1.28;100.00;101126.33;123548;1099;104313;-77
2024/01/20 06:30:50;;;;;;;44.97;20.23;;;;;;;-1.28;100.00;101136.63;123620;1099;104264;-77
2024/01/20 06:33:24;;;;;;;45.57;19.90;;;;;;;-1.29;99.84;101145.14;123243;1099;104737;-77
2024/01/20 06:35:55;;;;;;;50.07;20.77;;;;;;;-1.28;100.00;101153.02;123344;1099;104251;-77
2024/01/20 06:38:28;;;;;;;46.17;19.70;;;;;;;-1.29;100.00;101142.56;123370;1102;104255;-75
2024/01/20 06:40:59;;;;;;;47.60;20.20;;;;;;;-1.28;100.00;101141.78;123710;1099;104246;-77
2024/01/20 06:43:30;;;;;;;46.30;19.20;;;;;;;-1.26;100.00;101150.58;123574;1099;104351;-77
2024/01/20 06:46:02;;;;;;;47.10;19.53;;;;;;;-1.27;99.68;101159.06;123723;1099;104255;-76
2024/01/20 06:48:34;;;;;;;44.60;19.17;;;;;;;-1.28;99.55;101168.46;123653;1099;104406;-77
2024/01/20 06:51:06;;;;;;;43.05;18.00;;;;;;;-1.28;99.71;101160.73;123612;1099;104354;-76
2024/01/20 06:53:38;;;;;;;43.77;18.10;;;;;;;-1.29;99.77;101166.64;123659;1099;104255;-77
2024/01/20 06:56:09;;;;;;;47.20;19.13;;;;;;;-1.26;100.00;101168.61;123449;1099;104274;-76
2024/01/20 06:58:40;;;;;;;49.13;20.70;;;;;;;-1.22;99.32;101172.36;123700;1099;104255;-77
2024/01/20 07:01:11;;;;;;;47.87;19.13;;;;;;;-1.19;99.96;101170.97;123557;1102;104434;-76
2024/01/20 07:03:43;;;;;;;48.97;20.37;;;;;;;-1.16;99.69;101165.20;123584;1099;104284;-77
2024/01/20 07:06:14;;;;;;;46.33;20.03;;;;;;;-1.12;100.00;101165.64;123845;1098;104267;-77
2024/01/20 07:08:45;;;;;;;45.97;19.63;;;;;;;-1.10;99.56;101169.25;123517;1099;104265;-76
2024/01/20 07:11:17;;;;;;;44.60;19.70;;;;;;;-1.07;99.78;101175.47;123740;1099;104274;-77
2024/01/20 07:13:48;;;;;;;44.23;19.30;;;;;;;-1.05;99.46;101191.96;123775;1099;104368;-77
2024/01/20 07:16:22;;;;;;;46.03;18.93;;;;;;;-1.04;100.00;101193.75;123447;1102;107897;-78
2024/01/20 07:18:53;;;;;;;39.08;18.12;;;;;;;-1.01;99.70;101191.46;123559;1099;104660;-77
2024/01/20 07:21:24;;;;;;;43.17;18.47;;;;;;;-1.02;99.61;101185.41;123624;1099;104657;-76
2024/01/20 07:23:55;;;;;;;48.90;18.45;;;;;;;-0.98;99.33;101189.17;123721;1099;104278;-76
2024/01/20 07:26:26;;;;;;;52.80;21.53;;;;;;;-0.96;99.93;101185.09;123777;1098;104690;-77
2024/01/20 07:28:57;;;;;;;48.93;19.43;;;;;;;-0.94;99.65;101191.28;123693;1099;104303;-77
2024/01/20 07:31:29;;;;;;;43.43;18.53;;;;;;;-0.91;99.36;101188.98;123470;1099;104251;-76
2024/01/20 07:34:00;;;;;;;39.33;18.03;;;;;;;-0.89;99.09;101191.70;123578;1099;104181;-78
2024/01/20 07:36:31;;;;;;;39.17;18.10;;;;;;;-0.84;99.53;101195.60;123862;1099;104249;-77
2024/01/20 07:39:04;;;;;;;40.77;17.47;;;;;;;-0.80;99.73;101189.98;124036;1099;104319;-77
2024/01/20 07:41:35;;;;;;;35.40;15.53;;;;;;;-0.77;99.16;101191.16;123855;1099;104844;-76
2024/01/20 07:44:07;;;;;;;35.70;17.43;;;;;;;-0.74;99.06;101191.44;123594;1102;104303;-76
2024/01/20 07:46:38;;;;;;;37.93;16.53;;;;;;;-0.71;99.03;101202.81;123624;1099;104270;-78
2024/01/20 07:49:09;;;;;;;38.50;16.27;;;;;;;-0.70;98.78;101196.88;123718;1099;104351;-76
2024/01/20 07:51:40;;;;;;;38.30;16.53;;;;;;;-0.66;98.85;101209.29;123728;1099;104332;-77
2024/01/20 07:54:12;;;;;;;37.23;16.20;;;;;;;-0.64;99.48;101215.48;123605;1099;104373;-76
2024/01/20 07:56:43;;;;;;;36.33;16.40;;;;;;;-0.65;99.29;101214.58;123273;1102;104334;-76
2024/01/20 07:59:16;;;;;;;38.40;15.83;;;;;;;-0.64;98.62;101231.88;123355;1099;104280;-76
2024/01/20 08:01:49;;;;;;;37.23;15.97;;;;;;;-0.64;98.53;101224.14;123310;1099;104248;-77
2024/01/20 08:04:20;;;;;;;39.77;16.07;;;;;;;-0.63;99.44;101230.19;123371;1099;104251;-76
2024/01/20 08:06:52;;;;;;;34.57;14.10;;;;;;;-0.59;98.64;101250.34;123532;1099;104399;-76
2024/01/20 08:09:24;;;;;;;32.40;13.83;;;;;;;-0.53;98.63;101238.02;123739;1099;104322;-76
2024/01/20 08:11:55;;;;;;;31.50;13.73;;;;;;;-0.50;98.07;101243.42;123684;1099;104275;-75
2024/01/20 08:14:26;;;;;;;30.13;11.70;;;;;;;-0.50;97.34;101242.53;123699;1099;104719;-76
2024/01/20 08:16:57;;;;;;;29.80;12.30;;;;;;;-0.48;97.76;101235.83;123661;1099;104322;-77
2024/01/20 08:19:29;;;;;;;26.80;12.03;;;;;;;-0.42;97.84;101245.05;123987;1099;104286;-77
2024/01/20 08:22:00;;;;;;;27.75;11.30;;;;;;;-0.36;97.61;101247.27;123474;1099;104329;-77
2024/01/20 08:24:31;;;;;;;27.53;11.53;;;;;;;-0.28;96.70;101256.63;123734;1099;104270;-77
2024/01/20 08:27:05;;;;;;;27.13;11.40;;;;;;;-0.22;96.84;101256.26;123766;1098;104319;-77
2024/01/20 08:29:36;;;;;;;29.40;12.58;;;;;;;-0.16;97.23;101267.13;123770;1098;104328;-77
2024/01/20 08:32:08;;;;;;;31.15;12.00;;;;;;;-0.11;96.77;101275.29;123674;1099;104294;-77
2024/01/20 08:34:39;;;;;;;30.37;11.67;;;;;;;-0.07;97.55;101272.23;124025;1099;104183;-76
2024/01/20 08:37:11;;;;;;;27.67;12.50;;;;;;;-0.03;97.23;101266.59;123867;1099;104274;-77
2024/01/20 08:39:42;;;;;;;26.80;11.90;;;;;;;0.02;97.36;101272.14;124054;1099;104321;-76
2024/01/20 08:42:13;;;;;;;30.00;12.73;;;;;;;0.02;96.90;101270.48;123888;1099;104284;-77
2024/01/20 08:44:45;;;;;;;30.57;12.37;;;;;;;0.05;97.00;101277.57;123660;1099;104243;-76
2024/01/20 08:47:16;;;;;;;29.63;12.03;;;;;;;0.07;96.04;101273.48;123535;1099;104249;-76
2024/01/20 08:49:51;;;;;;;29.53;11.57;;;;;;;0.12;96.03;101278.27;123573;1099;104309;-76
2024/01/20 08:52:22;;;;;;;26.67;11.40;;;;;;;0.20;95.81;101291.86;123980;1099;104172;-76
2024/01/20 08:54:54;;;;;;;25.77;10.33;;;;;;;0.22;94.97;101286.83;123866;1099;104322;-76
2024/01/20 08:57:29;;;;;;;29.77;12.50;;;;;;;0.22;95.21;101280.02;123902;1099;104271;-77
2024/01/20 09:00:00;;;;;;;28.37;11.87;;;;;;;0.24;94.91;101286.21;124003;1099;104357;-75
2024/01/20 09:02:32;;;;;;;27.40;12.13;;;;;;;0.25;95.61;101300.94;123956;1099;104775;-76
2024/01/20 09:05:03;;;;;;;26.90;10.80;;;;;;;0.29;94.95;101286.62;124132;1099;104214;-75
2024/01/20 09:07:34;;;;;;;23.63;9.80;;;;;;;0.27;95.17;101293.34;123706;1099;103051;-77
2024/01/20 09:10:07;;;;;;;26.97;10.00;;;;;;;0.31;95.32;101291.16;124079;1099;104273;-76
2024/01/20 09:12:39;;;;;;;25.03;11.27;;;;;;;0.32;94.42;101292.95;123537;1099;104361;-77
2024/01/20 09:15:11;;;;;;;26.27;10.70;;;;;;;0.32;94.27;101300.70;123825;1099;104277;-76
2024/01/20 09:17:42;;;;;;;26.40;11.60;;;;;;;0.31;93.93;101304.08;124084;1099;104229;-77
2024/01/20 09:20:14;;;;;;;26.83;11.37;;;;;;;0.31;92.90;101311.82;123920;1099;104281;-77
2024/01/20 09:22:45;;;;;;;27.50;10.60;;;;;;;0.25;93.04;101306.11;123834;1099;104322;-76
2024/01/20 09:25:16;;;;;;;24.70;10.03;;;;;;;0.23;91.46;101304.14;123792;1099;104348;-77
2024/01/20 09:27:50;;;;;;;26.63;9.67;;;;;;;0.15;89.83;101316.36;124017;1099;104258;-77
2024/01/20 09:30:22;;;;;;;27.20;9.98;;;;;;;0.14;92.12;101311.95;124054;1099;104252;-78
2024/01/20 09:32:53;;;;;;;27.90;10.80;;;;;;;0.22;92.32;101322.97;124051;1099;104319;-77
2024/01/20 09:35:24;;;;;;;25.45;10.80;;;;;;;0.26;91.79;101318.22;123726;1099;104371;-77
2024/01/20 09:37:55;;;;;;;25.67;10.50;;;;;;;0.25;89.82;101313.85;123938;1099;104738;-77
2024/01/20 09:40:29;;;;;;;28.07;10.47;;;;;;;0.24;91.01;101313.72;124040;1099;104723;-77
2024/01/20 09:43:01;;;;;;;25.77;10.80;;;;;;;0.26;91.72;101325.97;124057;1099;104242;-77
2024/01/20 09:45:38;;;;;;;24.17;10.30;;;;;;;0.29;91.99;101331.41;123737;1099;104418;-77
2024/01/20 09:48:09;;;;;;;24.10;10.17;;;;;;;0.34;90.17;101326.66;123900;1099;104337;-76
2024/01/20 09:50:41;;;;;;;26.60;10.93;;;;;;;0.34;89.86;101324.08;124047;1099;104274;-77
2024/01/20 09:53:15;;;;;;;26.23;10.30;;;;;;;0.28;88.67;101310.62;123980;1099;104347;-77
2024/01/20 09:55:47;;;;;;;28.73;11.60;;;;;;;0.34;90.72;101312.09;123925;1099;104475;-76
2024/01/20 09:58:19;;;;;;;28.07;11.27;;;;;;;0.37;90.13;101323.45;123644;1099;104281;-76
2024/01/20 10:00:52;;;;;;;25.43;9.83;;;;;;;0.32;88.79;101326.52;123663;1098;104316;-76
2024/01/20 10:03:27;;;;;;;27.77;12.03;;;;;;;0.28;89.63;101326.11;123923;1099;104335;-77
2024/01/20 10:05:59;;;;;;;27.10;11.90;;;;;;;0.26;90.30;101325.97;123716;1099;104272;-77
2024/01/20 10:08:30;;;;;;;25.70;11.23;;;;;;;0.26;89.54;101333.71;124062;1099;104242;-76
2024/01/20 10:11:07;;;;;;;25.30;11.50;;;;;;;0.24;88.75;101330.09;123593;1102;104393;-76
2024/01/20 10:13:39;;;;;;;30.87;12.40;;;;;;;0.23;90.09;101328.27;123701;1102;104275;-78
2024/01/20 10:16:10;;;;;;;26.00;11.20;;;;;;;0.31;89.98;101331.55;124216;1099;104223;-77
2024/01/20 10:18:44;;;;;;;25.23;10.53;;;;;;;0.32;89.45;101331.69;123923;1099;104299;-75
2024/01/20 10:21:15;;;;;;;25.35;11.60;;;;;;;0.36;88.78;101332.89;124152;1099;104223;-76
2024/01/20 10:23:47;;;;;;;23.90;10.75;;;;;;;0.34;88.65;101332.75;123611;1099;104524;-76
2024/01/20 10:26:18;;;;;;;25.10;10.40;;;;;;;0.31;87.59;101328.97;124143;1099;104291;-77
2024/01/20 10:28:49;;;;;;;26.10;10.70;;;;;;;0.30;87.79;101330.66;123868;1099;105687;-78
2024/01/20 10:31:21;;;;;;;26.07;10.53;;;;;;;0.35;88.38;101325.91;123815;1099;104271;-79
2024/01/20 10:33:52;;;;;;;25.83;11.13;;;;;;;0.43;88.70;101322.31;123813;1098;104274;-76
2024/01/20 10:36:24;;;;;;;23.77;10.50;;;;;;;0.48;87.20;101327.89;123443;1099;104434;-77
2024/01/20 10:39:01;;;;;;;26.80;10.55;;;;;;;0.56;86.70;101334.64;123390;1098;104350;-77
2024/01/20 10:41:34;;;;;;;28.73;12.07;;;;;;;0.62;87.40;101339.45;123493;1102;104278;-77
2024/01/20 10:44:11;;;;;;;25.75;11.22;;;;;;;0.68;87.72;101348.64;123440;1099;104246;-77
2024/01/20 10:46:46;;;;;;;24.27;10.47;;;;;;;0.76;86.90;101335.52;123833;1099;104335;-77
2024/01/20 10:49:23;;;;;;;25.67;10.07;;;;;;;0.76;86.25;101353.59;123598;1099;104434;-78
2024/01/20 10:51:56;;;;;;;22.20;10.53;;;;;;;0.67;85.72;101348.51;123573;1099;104332;-76
2024/01/20 10:54:29;;;;;;;24.10;10.60;;;;;;;0.66;85.99;101347.61;124025;1099;104393;-77
2024/01/20 10:57:00;;;;;;;27.05;10.40;;;;;;;0.60;86.24;101341.91;124527;1099;104242;-77
2024/01/20 10:59:36;;;;;;;23.70;10.03;;;;;;;0.59;85.90;101332.33;123837;1099;104629;-77
2024/01/20 11:02:09;;;;;;;28.53;11.63;;;;;;;0.64;85.87;101348.23;123440;1099;104327;-76
2024/01/20 11:04:43;;;;;;;28.00;12.13;;;;;;;0.63;86.19;101347.34;123455;1099;104348;-78
2024/01/20 11:07:20;;;;;;;22.33;11.03;;;;;;;0.65;87.27;101337.14;123727;1099;104376;-79
2024/01/20 11:09:57;;;;;;;21.73;10.30;;;;;;;0.68;86.96;101340.89;123903;1099;104289;-78
2024/01/20 11:12:31;;;;;;;23.13;10.93;;;;;;;0.66;86.19;101342.45;123850;1099;104245;-79